sensor_id;sensor_type;location;lat;lon;timestamp;temperature;humidity
8340;DHT22;4207;49.314;7.162;2023-02-17T00:01:13;9.70;99.90
8340;DHT22;4207;49.314;7.162;2023-02-17T00:03:41;9.70;99.90
8340;DHT22;4207;49.314;7.162;2023-02-17T00:06:10;9.70;99.90
8340;DHT22;4207;49.314;7.162;2023-02-17T00:08:39;9.70;99.90
8340;DHT22;4207;49.314;7.162;2023-02-17T00:11:07;9.70;99.90
8340;DHT22;4207;49.314;7.162;2023-02-17T00:13:36;9.70;99.90
8340;DHT22;4207;49.314;7.162;2023-02-17T00:16:09;9.70;99.90
8340;DHT22;4207;49.314;7.162;2023-02-17T00:18:38;9.70;99.90
8340;DHT22;4207;49.314;7.162;2023-02-17T00:21:13;9.70;99.90
8340;DHT22;4207;49.314;7.162;2023-02-17T00:23:43;9.70;99.90
8340;DHT22;4207;49.314;7.162;2023-02-17T00:26:11;9.70;99.90
8340;DHT22;4207;49.314;7.162;2023-02-17T00:28:41;9.70;99.90
8340;DHT22;4207;49.314;7.162;2023-02-17T00:31:13;9.70;99.90
8340;DHT22;4207;49.314;7.162;2023-02-17T00:33:42;9.70;99.90
8340;DHT22;4207;49.314;7.162;2023-02-17T00:36:11;9.70;99.90
8340;DHT22;4207;49.314;7.162;2023-02-17T00:38:40;9.70;99.90
8340;DHT22;4207;49.314;7.162;2023-02-17T00:41:08;9.70;99.90
8340;DHT22;4207;49.314;7.162;2023-02-17T00:43:36;9.70;99.90
8340;DHT22;4207;49.314;7.162;2023-02-17T00:46:04;9.70;99.90
8340;DHT22;4207;49.314;7.162;2023-02-17T00:48:34;9.60;99.90
8340;DHT22;4207;49.314;7.162;2023-02-17T00:51:03;9.70;99.90
8340;DHT22;4207;49.314;7.162;2023-02-17T00:53:33;9.70;99.90
8340;DHT22;4207;49.314;7.162;2023-02-17T00:56:02;9.70;99.90
8340;DHT22;4207;49.314;7.162;2023-02-17T00:58:30;9.70;99.90
8340;DHT22;4207;49.314;7.162;2023-02-17T01:00:59;9.70;99.90
8340;DHT22;4207;49.314;7.162;2023-02-17T01:03:27;9.70;99.90
8340;DHT22;4207;49.314;7.162;2023-02-17T01:05:58;9.70;99.90
8340;DHT22;4207;49.314;7.162;2023-02-17T01:08:26;9.70;99.90
8340;DHT22;4207;49.314;7.162;2023-02-17T01:10:54;9.70;99.90
8340;DHT22;4207;49.314;7.162;2023-02-17T01:13:23;9.70;99.90
8340;DHT22;4207;49.314;7.162;2023-02-17T01:15:52;9.70;99.90
8340;DHT22;4207;49.314;7.162;2023-02-17T01:18:22;9.70;99.90
8340;DHT22;4207;49.314;7.162;2023-02-17T01:20:50;9.70;99.90
8340;DHT22;4207;49.314;7.162;2023-02-17T01:23:20;9.60;99.90
8340;DHT22;4207;49.314;7.162;2023-02-17T01:25:48;9.70;99.90
8340;DHT22;4207;49.314;7.162;2023-02-17T01:28:19;9.70;99.90
8340;DHT22;4207;49.314;7.162;2023-02-17T01:30:49;9.70;99.90
8340;DHT22;4207;49.314;7.162;2023-02-17T01:33:17;9.60;99.90
8340;DHT22;4207;49.314;7.162;2023-02-17T01:35:45;9.60;99.90
8340;DHT22;4207;49.314;7.162;2023-02-17T01:38:13;9.50;99.90
8340;DHT22;4207;49.314;7.162;2023-02-17T01:40:47;9.40;99.90
8340;DHT22;4207;49.314;7.162;2023-02-17T01:43:16;9.20;99.90
8340;DHT22;4207;49.314;7.162;2023-02-17T01:45:50;9.10;99.90
8340;DHT22;4207;49.314;7.162;2023-02-17T01:48:20;9.00;99.90
8340;DHT22;4207;49.314;7.162;2023-02-17T01:50:51;9.00;99.90
8340;DHT22;4207;49.314;7.162;2023-02-17T01:53:23;8.90;99.90
8340;DHT22;4207;49.314;7.162;2023-02-17T01:55:54;8.80;99.90
8340;DHT22;4207;49.314;7.162;2023-02-17T01:58:24;8.80;99.90
8340;DHT22;4207;49.314;7.162;2023-02-17T02:00:55;8.80;99.90
8340;DHT22;4207;49.314;7.162;2023-02-17T02:03:25;8.70;99.90
8340;DHT22;4207;49.314;7.162;2023-02-17T02:05:54;8.80;99.90
8340;DHT22;4207;49.314;7.162;2023-02-17T02:08:22;8.70;99.90
8340;DHT22;4207;49.314;7.162;2023-02-17T02:10:53;8.70;99.90
8340;DHT22;4207;49.314;7.162;2023-02-17T02:13:21;8.70;99.90
8340;DHT22;4207;49.314;7.162;2023-02-17T02:15:57;8.70;99.90
8340;DHT22;4207;49.314;7.162;2023-02-17T02:18:38;8.70;99.90
8340;DHT22;4207;49.314;7.162;2023-02-17T02:21:33;8.70;99.90
8340;DHT22;4207;49.314;7.162;2023-02-17T02:24:15;8.70;99.90
8340;DHT22;4207;49.314;7.162;2023-02-17T02:27:18;8.70;99.90
8340;DHT22;4207;49.314;7.162;2023-02-17T02:30:24;8.70;99.90
8340;DHT22;4207;49.314;7.162;2023-02-17T02:33:01;8.80;99.90
8340;DHT22;4207;49.314;7.162;2023-02-17T02:35:36;8.80;99.90
8340;DHT22;4207;49.314;7.162;2023-02-17T02:38:13;8.70;99.90
8340;DHT22;4207;49.314;7.162;2023-02-17T02:40:45;8.80;99.90
8340;DHT22;4207;49.314;7.162;2023-02-17T02:43:14;8.80;99.90
8340;DHT22;4207;49.314;7.162;2023-02-17T02:45:42;8.80;99.90
8340;DHT22;4207;49.314;7.162;2023-02-17T02:48:12;8.80;99.90
8340;DHT22;4207;49.314;7.162;2023-02-17T02:50:54;8.80;99.90
8340;DHT22;4207;49.314;7.162;2023-02-17T02:53:46;8.90;99.90
8340;DHT22;4207;49.314;7.162;2023-02-17T02:56:29;8.90;99.90
8340;DHT22;4207;49.314;7.162;2023-02-17T02:59:05;8.90;99.90
8340;DHT22;4207;49.314;7.162;2023-02-17T03:01:43;8.90;99.90
8340;DHT22;4207;49.314;7.162;2023-02-17T03:04:17;8.90;99.90
8340;DHT22;4207;49.314;7.162;2023-02-17T03:06:48;8.90;99.90
8340;DHT22;4207;49.314;7.162;2023-02-17T03:09:20;8.80;99.90
8340;DHT22;4207;49.314;7.162;2023-02-17T03:11:49;8.90;99.90
8340;DHT22;4207;49.314;7.162;2023-02-17T03:14:19;8.90;99.90
8340;DHT22;4207;49.314;7.162;2023-02-17T03:16:49;8.90;99.90
8340;DHT22;4207;49.314;7.162;2023-02-17T03:19:21;9.00;99.90
8340;DHT22;4207;49.314;7.162;2023-02-17T03:21:53;8.90;99.90
8340;DHT22;4207;49.314;7.162;2023-02-17T03:24:22;8.90;99.90
8340;DHT22;4207;49.314;7.162;2023-02-17T03:26:51;8.90;99.90
8340;DHT22;4207;49.314;7.162;2023-02-17T03:29:18;9.00;99.90
8340;DHT22;4207;49.314;7.162;2023-02-17T03:31:46;9.00;99.90
8340;DHT22;4207;49.314;7.162;2023-02-17T03:34:15;9.00;99.90
8340;DHT22;4207;49.314;7.162;2023-02-17T03:36:44;9.00;99.90
8340;DHT22;4207;49.314;7.162;2023-02-17T03:39:12;9.00;99.90
8340;DHT22;4207;49.314;7.162;2023-02-17T03:41:40;9.00;99.90
8340;DHT22;4207;49.314;7.162;2023-02-17T03:44:08;9.00;99.90
8340;DHT22;4207;49.314;7.162;2023-02-17T03:46:38;9.00;99.90
8340;DHT22;4207;49.314;7.162;2023-02-17T03:49:06;9.00;99.90
8340;DHT22;4207;49.314;7.162;2023-02-17T03:51:34;8.90;99.90
8340;DHT22;4207;49.314;7.162;2023-02-17T03:54:04;8.90;99.90
8340;DHT22;4207;49.314;7.162;2023-02-17T03:56:32;8.90;99.90
8340;DHT22;4207;49.314;7.162;2023-02-17T03:59:00;8.90;99.90
8340;DHT22;4207;49.314;7.162;2023-02-17T04:01:28;8.90;99.90
8340;DHT22;4207;49.314;7.162;2023-02-17T04:03:56;8.90;99.90
8340;DHT22;4207;49.314;7.162;2023-02-17T04:06:24;8.90;99.90
8340;DHT22;4207;49.314;7.162;2023-02-17T04:08:52;8.90;99.90
8340;DHT22;4207;49.314;7.162;2023-02-17T04:11:22;8.90;99.90
8340;DHT22;4207;49.314;7.162;2023-02-17T04:13:50;8.90;99.90
8340;DHT22;4207;49.314;7.162;2023-02-17T04:16:18;8.90;99.90
8340;DHT22;4207;49.314;7.162;2023-02-17T04:18:46;8.90;99.90
8340;DHT22;4207;49.314;7.162;2023-02-17T04:21:14;8.90;99.90
8340;DHT22;4207;49.314;7.162;2023-02-17T04:23:42;8.90;99.90
8340;DHT22;4207;49.314;7.162;2023-02-17T04:26:10;8.90;99.90
8340;DHT22;4207;49.314;7.162;2023-02-17T04:28:40;9.00;99.90
8340;DHT22;4207;49.314;7.162;2023-02-17T04:31:09;8.90;99.90
8340;DHT22;4207;49.314;7.162;2023-02-17T04:33:37;9.00;99.90
8340;DHT22;4207;49.314;7.162;2023-02-17T04:36:05;9.00;99.90
8340;DHT22;4207;49.314;7.162;2023-02-17T04:38:36;9.00;99.90
8340;DHT22;4207;49.314;7.162;2023-02-17T04:41:05;8.90;99.90
8340;DHT22;4207;49.314;7.162;2023-02-17T04:43:33;9.00;99.90
8340;DHT22;4207;49.314;7.162;2023-02-17T04:46:03;9.00;99.90
8340;DHT22;4207;49.314;7.162;2023-02-17T04:48:33;8.90;99.90
8340;DHT22;4207;49.314;7.162;2023-02-17T04:51:01;9.00;99.90
8340;DHT22;4207;49.314;7.162;2023-02-17T04:53:29;9.00;99.90
8340;DHT22;4207;49.314;7.162;2023-02-17T04:55:57;9.00;99.90
8340;DHT22;4207;49.314;7.162;2023-02-17T04:58:25;8.90;99.90
8340;DHT22;4207;49.314;7.162;2023-02-17T05:00:53;9.00;99.90
8340;DHT22;4207;49.314;7.162;2023-02-17T05:03:23;9.00;99.90
8340;DHT22;4207;49.314;7.162;2023-02-17T05:05:51;9.00;99.90
8340;DHT22;4207;49.314;7.162;2023-02-17T05:08:19;9.00;99.90
8340;DHT22;4207;49.314;7.162;2023-02-17T05:10:47;9.00;99.90
8340;DHT22;4207;49.314;7.162;2023-02-17T05:13:14;9.00;99.90
8340;DHT22;4207;49.314;7.162;2023-02-17T05:15:43;9.00;99.90
8340;DHT22;4207;49.314;7.162;2023-02-17T05:18:11;9.00;99.90
8340;DHT22;4207;49.314;7.162;2023-02-17T05:20:40;9.00;99.90
8340;DHT22;4207;49.314;7.162;2023-02-17T05:23:08;9.00;99.90
8340;DHT22;4207;49.314;7.162;2023-02-17T05:25:36;9.00;99.90
8340;DHT22;4207;49.314;7.162;2023-02-17T05:28:06;9.00;99.90
8340;DHT22;4207;49.314;7.162;2023-02-17T05:30:34;9.00;99.90
8340;DHT22;4207;49.314;7.162;2023-02-17T05:33:02;9.00;99.90
8340;DHT22;4207;49.314;7.162;2023-02-17T05:35:33;9.00;99.90
8340;DHT22;4207;49.314;7.162;2023-02-17T05:38:02;9.10;99.90
8340;DHT22;4207;49.314;7.162;2023-02-17T05:40:30;9.10;99.90
8340;DHT22;4207;49.314;7.162;2023-02-17T05:42:58;9.10;99.90
8340;DHT22;4207;49.314;7.162;2023-02-17T05:45:26;9.10;99.90
8340;DHT22;4207;49.314;7.162;2023-02-17T05:47:54;9.10;99.90
8340;DHT22;4207;49.314;7.162;2023-02-17T05:50:22;9.10;99.90
8340;DHT22;4207;49.314;7.162;2023-02-17T05:52:50;9.10;99.90
8340;DHT22;4207;49.314;7.162;2023-02-17T05:55:20;9.10;99.90
8340;DHT22;4207;49.314;7.162;2023-02-17T05:57:48;9.10;99.90
8340;DHT22;4207;49.314;7.162;2023-02-17T06:00:16;9.10;99.90
8340;DHT22;4207;49.314;7.162;2023-02-17T06:02:44;9.10;99.90
8340;DHT22;4207;49.314;7.162;2023-02-17T06:05:12;9.10;99.90
8340;DHT22;4207;49.314;7.162;2023-02-17T06:07:41;9.00;99.90
8340;DHT22;4207;49.314;7.162;2023-02-17T06:10:10;9.10;99.90
8340;DHT22;4207;49.314;7.162;2023-02-17T06:12:39;9.10;99.90
8340;DHT22;4207;49.314;7.162;2023-02-17T06:15:08;9.00;99.90
8340;DHT22;4207;49.314;7.162;2023-02-17T06:17:36;9.10;99.90
8340;DHT22;4207;49.314;7.162;2023-02-17T06:20:05;9.10;99.90
8340;DHT22;4207;49.314;7.162;2023-02-17T06:22:34;9.10;99.90
8340;DHT22;4207;49.314;7.162;2023-02-17T06:25:02;9.10;99.90
8340;DHT22;4207;49.314;7.162;2023-02-17T06:27:30;9.10;99.90
8340;DHT22;4207;49.314;7.162;2023-02-17T06:29:59;9.10;99.90
8340;DHT22;4207;49.314;7.162;2023-02-17T06:32:27;9.10;99.90
8340;DHT22;4207;49.314;7.162;2023-02-17T06:34:55;9.10;99.90
8340;DHT22;4207;49.314;7.162;2023-02-17T06:37:23;9.10;99.90
8340;DHT22;4207;49.314;7.162;2023-02-17T06:39:52;9.10;99.90
8340;DHT22;4207;49.314;7.162;2023-02-17T06:42:20;9.10;99.90
8340;DHT22;4207;49.314;7.162;2023-02-17T06:44:48;9.10;99.90
8340;DHT22;4207;49.314;7.162;2023-02-17T06:47:17;9.00;99.90
8340;DHT22;4207;49.314;7.162;2023-02-17T06:49:45;9.10;99.90
8340;DHT22;4207;49.314;7.162;2023-02-17T06:52:13;9.10;99.90
8340;DHT22;4207;49.314;7.162;2023-02-17T06:54:41;9.10;99.90
8340;DHT22;4207;49.314;7.162;2023-02-17T06:57:09;9.10;99.90
8340;DHT22;4207;49.314;7.162;2023-02-17T06:59:37;9.10;99.90
8340;DHT22;4207;49.314;7.162;2023-02-17T07:02:05;9.10;99.90
8340;DHT22;4207;49.314;7.162;2023-02-17T07:04:35;9.10;99.90
8340;DHT22;4207;49.314;7.162;2023-02-17T07:07:03;9.10;99.90
8340;DHT22;4207;49.314;7.162;2023-02-17T07:09:31;9.10;99.90
8340;DHT22;4207;49.314;7.162;2023-02-17T07:12:00;9.10;99.90
8340;DHT22;4207;49.314;7.162;2023-02-17T07:14:28;9.10;99.90
8340;DHT22;4207;49.314;7.162;2023-02-17T07:16:56;9.10;99.90
8340;DHT22;4207;49.314;7.162;2023-02-17T07:19:24;9.00;99.90
8340;DHT22;4207;49.314;7.162;2023-02-17T07:21:53;9.10;99.90
8340;DHT22;4207;49.314;7.162;2023-02-17T07:24:22;9.10;99.90
8340;DHT22;4207;49.314;7.162;2023-02-17T07:26:50;9.10;99.90
8340;DHT22;4207;49.314;7.162;2023-02-17T07:29:19;9.10;99.90
8340;DHT22;4207;49.314;7.162;2023-02-17T07:31:47;9.10;99.90
8340;DHT22;4207;49.314;7.162;2023-02-17T07:34:15;9.10;99.90
8340;DHT22;4207;49.314;7.162;2023-02-17T07:36:43;9.10;99.90
8340;DHT22;4207;49.314;7.162;2023-02-17T07:39:13;9.20;99.90
8340;DHT22;4207;49.314;7.162;2023-02-17T07:41:41;9.10;99.90
8340;DHT22;4207;49.314;7.162;2023-02-17T07:44:09;9.20;99.90
8340;DHT22;4207;49.314;7.162;2023-02-17T07:46:38;9.20;99.90
8340;DHT22;4207;49.314;7.162;2023-02-17T07:49:06;9.20;99.90
8340;DHT22;4207;49.314;7.162;2023-02-17T07:51:34;9.20;99.90
8340;DHT22;4207;49.314;7.162;2023-02-17T07:54:03;9.20;99.90
8340;DHT22;4207;49.314;7.162;2023-02-17T07:56:32;9.30;99.90
8340;DHT22;4207;49.314;7.162;2023-02-17T07:59:00;9.30;99.90
8340;DHT22;4207;49.314;7.162;2023-02-17T08:01:28;9.30;99.90
8340;DHT22;4207;49.314;7.162;2023-02-17T08:03:56;9.30;99.90
8340;DHT22;4207;49.314;7.162;2023-02-17T08:06:25;9.40;99.90
8340;DHT22;4207;49.314;7.162;2023-02-17T08:08:53;9.30;99.90
8340;DHT22;4207;49.314;7.162;2023-02-17T08:11:41;9.40;99.90
8340;DHT22;4207;49.314;7.162;2023-02-17T08:14:29;9.40;99.90
8340;DHT22;4207;49.314;7.162;2023-02-17T08:16:57;9.40;99.90
8340;DHT22;4207;49.314;7.162;2023-02-17T08:19:25;9.40;99.90
8340;DHT22;4207;49.314;7.162;2023-02-17T08:22:12;9.40;99.90
8340;DHT22;4207;49.314;7.162;2023-02-17T08:24:40;9.40;99.90
8340;DHT22;4207;49.314;7.162;2023-02-17T08:27:09;9.40;99.90
8340;DHT22;4207;49.314;7.162;2023-02-17T08:29:37;9.40;99.90
8340;DHT22;4207;49.314;7.162;2023-02-17T08:32:06;9.40;99.90
8340;DHT22;4207;49.314;7.162;2023-02-17T08:34:34;9.50;99.90
8340;DHT22;4207;49.314;7.162;2023-02-17T08:37:03;9.50;99.90
8340;DHT22;4207;49.314;7.162;2023-02-17T08:39:32;9.60;99.90
8340;DHT22;4207;49.314;7.162;2023-02-17T08:42:01;9.60;99.90
8340;DHT22;4207;49.314;7.162;2023-02-17T08:44:33;9.60;99.90
8340;DHT22;4207;49.314;7.162;2023-02-17T08:47:03;9.60;99.90
8340;DHT22;4207;49.314;7.162;2023-02-17T08:49:32;9.60;99.90
8340;DHT22;4207;49.314;7.162;2023-02-17T08:52:00;9.60;99.90
8340;DHT22;4207;49.314;7.162;2023-02-17T08:54:30;9.60;99.90
8340;DHT22;4207;49.314;7.162;2023-02-17T08:56:58;9.60;99.90
8340;DHT22;4207;49.314;7.162;2023-02-17T08:59:26;9.60;99.90
8340;DHT22;4207;49.314;7.162;2023-02-17T09:01:58;9.60;99.90
8340;DHT22;4207;49.314;7.162;2023-02-17T09:04:26;9.70;99.90
8340;DHT22;4207;49.314;7.162;2023-02-17T09:06:55;9.60;99.90
8340;DHT22;4207;49.314;7.162;2023-02-17T09:09:25;9.70;99.90
8340;DHT22;4207;49.314;7.162;2023-02-17T09:11:54;9.70;99.90
8340;DHT22;4207;49.314;7.162;2023-02-17T09:14:22;9.70;99.90
8340;DHT22;4207;49.314;7.162;2023-02-17T09:16:51;9.70;99.90
8340;DHT22;4207;49.314;7.162;2023-02-17T09:19:21;9.70;99.90
8340;DHT22;4207;49.314;7.162;2023-02-17T09:21:49;9.70;99.90
8340;DHT22;4207;49.314;7.162;2023-02-17T09:24:18;9.70;99.90
8340;DHT22;4207;49.314;7.162;2023-02-17T09:26:46;9.70;99.90
8340;DHT22;4207;49.314;7.162;2023-02-17T09:29:14;9.70;99.90
8340;DHT22;4207;49.314;7.162;2023-02-17T09:31:43;9.70;99.90
8340;DHT22;4207;49.314;7.162;2023-02-17T09:34:11;9.70;99.90
8340;DHT22;4207;49.314;7.162;2023-02-17T09:36:42;9.70;99.90
8340;DHT22;4207;49.314;7.162;2023-02-17T09:39:10;9.80;99.90
8340;DHT22;4207;49.314;7.162;2023-02-17T09:41:42;9.70;99.90
8340;DHT22;4207;49.314;7.162;2023-02-17T09:44:16;9.70;99.90
8340;DHT22;4207;49.314;7.162;2023-02-17T09:46:51;9.70;99.90
8340;DHT22;4207;49.314;7.162;2023-02-17T09:49:34;9.80;99.90
8340;DHT22;4207;49.314;7.162;2023-02-17T09:52:10;9.80;99.90
8340;DHT22;4207;49.314;7.162;2023-02-17T09:54:46;9.80;99.90
8340;DHT22;4207;49.314;7.162;2023-02-17T09:57:21;9.90;99.90
8340;DHT22;4207;49.314;7.162;2023-02-17T09:59:54;9.90;99.90
8340;DHT22;4207;49.314;7.162;2023-02-17T10:02:28;9.90;99.90
8340;DHT22;4207;49.314;7.162;2023-02-17T10:05:02;9.90;99.90
8340;DHT22;4207;49.314;7.162;2023-02-17T10:07:36;9.90;99.90
8340;DHT22;4207;49.314;7.162;2023-02-17T10:10:09;9.90;99.90
8340;DHT22;4207;49.314;7.162;2023-02-17T10:12:40;9.90;99.90
8340;DHT22;4207;49.314;7.162;2023-02-17T10:15:13;10.00;99.90
8340;DHT22;4207;49.314;7.162;2023-02-17T10:17:47;10.00;99.90
8340;DHT22;4207;49.314;7.162;2023-02-17T10:20:21;10.00;99.90
8340;DHT22;4207;49.314;7.162;2023-02-17T10:22:56;9.90;99.90
8340;DHT22;4207;49.314;7.162;2023-02-17T10:25:43;9.90;99.90
8340;DHT22;4207;49.314;7.162;2023-02-17T10:28:17;9.90;99.90
8340;DHT22;4207;49.314;7.162;2023-02-17T10:30:51;10.00;99.90
8340;DHT22;4207;49.314;7.162;2023-02-17T10:33:25;10.00;99.90
8340;DHT22;4207;49.314;7.162;2023-02-17T10:36:01;10.00;99.90
8340;DHT22;4207;49.314;7.162;2023-02-17T10:38:44;10.00;99.90
8340;DHT22;4207;49.314;7.162;2023-02-17T10:41:19;10.00;99.90
8340;DHT22;4207;49.314;7.162;2023-02-17T10:43:48;10.00;99.90
8340;DHT22;4207;49.314;7.162;2023-02-17T10:46:20;10.00;99.90
8340;DHT22;4207;49.314;7.162;2023-02-17T10:48:53;10.00;99.90
8340;DHT22;4207;49.314;7.162;2023-02-17T10:51:24;10.00;99.90
8340;DHT22;4207;49.314;7.162;2023-02-17T10:53:57;10.00;99.90
8340;DHT22;4207;49.314;7.162;2023-02-17T10:56:32;10.10;99.90
8340;DHT22;4207;49.314;7.162;2023-02-17T10:59:04;10.00;99.90
8340;DHT22;4207;49.314;7.162;2023-02-17T11:01:35;10.00;99.90
8340;DHT22;4207;49.314;7.162;2023-02-17T11:04:05;10.00;99.90
8340;DHT22;4207;49.314;7.162;2023-02-17T11:06:36;10.00;99.90
8340;DHT22;4207;49.314;7.162;2023-02-17T11:09:18;10.00;99.90
8340;DHT22;4207;49.314;7.162;2023-02-17T11:11:56;10.00;99.90
8340;DHT22;4207;49.314;7.162;2023-02-17T11:14:27;10.00;99.90
8340;DHT22;4207;49.314;7.162;2023-02-17T11:16:57;10.00;99.90
8340;DHT22;4207;49.314;7.162;2023-02-17T11:19:28;10.00;99.90
8340;DHT22;4207;49.314;7.162;2023-02-17T11:21:58;10.00;99.90
8340;DHT22;4207;49.314;7.162;2023-02-17T11:24:29;10.00;99.90
8340;DHT22;4207;49.314;7.162;2023-02-17T11:27:00;10.10;99.90
8340;DHT22;4207;49.314;7.162;2023-02-17T11:29:29;10.00;99.90
8340;DHT22;4207;49.314;7.162;2023-02-17T11:32:00;10.10;99.90
8340;DHT22;4207;49.314;7.162;2023-02-17T11:34:31;10.10;99.90
8340;DHT22;4207;49.314;7.162;2023-02-17T11:37:02;10.10;99.90
8340;DHT22;4207;49.314;7.162;2023-02-17T11:39:37;10.10;99.90
8340;DHT22;4207;49.314;7.162;2023-02-17T11:42:13;10.20;99.90
8340;DHT22;4207;49.314;7.162;2023-02-17T11:44:42;10.20;99.90
8340;DHT22;4207;49.314;7.162;2023-02-17T11:47:16;10.30;99.90
8340;DHT22;4207;49.314;7.162;2023-02-17T11:50:20;10.20;99.90
8340;DHT22;4207;49.314;7.162;2023-02-17T11:53:18;10.20;99.90
8340;DHT22;4207;49.314;7.162;2023-02-17T11:55:58;10.30;99.90
8340;DHT22;4207;49.314;7.162;2023-02-17T11:58:34;10.30;99.90
8340;DHT22;4207;49.314;7.162;2023-02-17T12:01:15;10.30;99.90
8340;DHT22;4207;49.314;7.162;2023-02-17T12:07:00;10.30;99.90
8340;DHT22;4207;49.314;7.162;2023-02-17T12:09:39;10.30;99.90
8340;DHT22;4207;49.314;7.162;2023-02-17T12:12:18;10.40;99.90
8340;DHT22;4207;49.314;7.162;2023-02-17T12:15:06;10.50;99.90
8340;DHT22;4207;49.314;7.162;2023-02-17T12:17:41;10.40;99.90
8340;DHT22;4207;49.314;7.162;2023-02-17T12:20:30;10.50;99.90
8340;DHT22;4207;49.314;7.162;2023-02-17T12:23:11;10.50;99.90
8340;DHT22;4207;49.314;7.162;2023-02-17T12:25:45;10.50;99.90
8340;DHT22;4207;49.314;7.162;2023-02-17T12:28:39;10.50;99.90
8340;DHT22;4207;49.314;7.162;2023-02-17T12:31:18;10.50;99.90
8340;DHT22;4207;49.314;7.162;2023-02-17T12:33:56;10.60;99.90
8340;DHT22;4207;49.314;7.162;2023-02-17T12:36:29;10.60;99.90
8340;DHT22;4207;49.314;7.162;2023-02-17T12:39:00;10.60;99.90
8340;DHT22;4207;49.314;7.162;2023-02-17T12:41:32;10.60;99.90
8340;DHT22;4207;49.314;7.162;2023-02-17T12:44:05;10.60;99.90
8340;DHT22;4207;49.314;7.162;2023-02-17T12:46:39;10.60;99.90
8340;DHT22;4207;49.314;7.162;2023-02-17T12:49:11;10.70;99.90
8340;DHT22;4207;49.314;7.162;2023-02-17T12:51:42;10.70;99.90
8340;DHT22;4207;49.314;7.162;2023-02-17T12:54:16;10.70;99.90
8340;DHT22;4207;49.314;7.162;2023-02-17T12:59:32;10.80;99.90
8340;DHT22;4207;49.314;7.162;2023-02-17T13:02:03;10.80;99.90
8340;DHT22;4207;49.314;7.162;2023-02-17T13:04:32;10.80;99.90
8340;DHT22;4207;49.314;7.162;2023-02-17T13:07:31;10.80;99.90
8340;DHT22;4207;49.314;7.162;2023-02-17T13:10:01;10.90;99.90
8340;DHT22;4207;49.314;7.162;2023-02-17T13:12:38;10.90;99.90
8340;DHT22;4207;49.314;7.162;2023-02-17T13:15:29;10.90;99.90
8340;DHT22;4207;49.314;7.162;2023-02-17T13:17:58;10.90;99.90
8340;DHT22;4207;49.314;7.162;2023-02-17T13:20:51;10.90;99.90
8340;DHT22;4207;49.314;7.162;2023-02-17T13:23:28;10.90;99.90
8340;DHT22;4207;49.314;7.162;2023-02-17T13:26:05;10.90;99.90
8340;DHT22;4207;49.314;7.162;2023-02-17T13:28:36;10.90;99.90
8340;DHT22;4207;49.314;7.162;2023-02-17T13:31:13;10.90;99.90
8340;DHT22;4207;49.314;7.162;2023-02-17T13:33:47;10.90;99.90
8340;DHT22;4207;49.314;7.162;2023-02-17T13:36:19;11.00;99.90
8340;DHT22;4207;49.314;7.162;2023-02-17T13:38:57;11.00;99.90
8340;DHT22;4207;49.314;7.162;2023-02-17T13:41:28;11.00;99.90
8340;DHT22;4207;49.314;7.162;2023-02-17T13:44:18;11.10;99.90
8340;DHT22;4207;49.314;7.162;2023-02-17T13:46:48;11.10;99.90
8340;DHT22;4207;49.314;7.162;2023-02-17T13:49:21;11.10;99.90
8340;DHT22;4207;49.314;7.162;2023-02-17T13:51:50;11.10;99.90
8340;DHT22;4207;49.314;7.162;2023-02-17T13:54:19;11.10;99.90
8340;DHT22;4207;49.314;7.162;2023-02-17T13:56:51;11.10;99.90
8340;DHT22;4207;49.314;7.162;2023-02-17T13:59:24;11.10;99.90
8340;DHT22;4207;49.314;7.162;2023-02-17T14:01:54;11.20;99.90
8340;DHT22;4207;49.314;7.162;2023-02-17T14:04:26;11.20;99.90
8340;DHT22;4207;49.314;7.162;2023-02-17T14:06:59;11.20;99.90
8340;DHT22;4207;49.314;7.162;2023-02-17T14:09:31;11.20;99.90
8340;DHT22;4207;49.314;7.162;2023-02-17T14:12:01;11.20;99.90
8340;DHT22;4207;49.314;7.162;2023-02-17T14:14:31;11.10;99.90
8340;DHT22;4207;49.314;7.162;2023-02-17T14:17:03;11.10;99.90
8340;DHT22;4207;49.314;7.162;2023-02-17T14:19:41;11.10;99.90
8340;DHT22;4207;49.314;7.162;2023-02-17T14:22:23;11.00;99.90
8340;DHT22;4207;49.314;7.162;2023-02-17T14:24:59;11.10;99.90
8340;DHT22;4207;49.314;7.162;2023-02-17T14:27:28;11.00;99.90
8340;DHT22;4207;49.314;7.162;2023-02-17T14:29:56;11.00;99.90
8340;DHT22;4207;49.314;7.162;2023-02-17T14:32:30;11.00;99.90
8340;DHT22;4207;49.314;7.162;2023-02-17T14:35:18;11.00;99.90
8340;DHT22;4207;49.314;7.162;2023-02-17T14:37:47;11.00;99.90
8340;DHT22;4207;49.314;7.162;2023-02-17T14:40:17;10.90;99.90
8340;DHT22;4207;49.314;7.162;2023-02-17T14:42:46;10.90;99.90
8340;DHT22;4207;49.314;7.162;2023-02-17T14:45:14;10.90;99.90
8340;DHT22;4207;49.314;7.162;2023-02-17T14:47:45;10.80;99.90
8340;DHT22;4207;49.314;7.162;2023-02-17T14:50:14;10.90;99.90
8340;DHT22;4207;49.314;7.162;2023-02-17T14:52:44;10.80;99.90
8340;DHT22;4207;49.314;7.162;2023-02-17T14:55:17;10.80;99.90
8340;DHT22;4207;49.314;7.162;2023-02-17T14:57:48;10.80;99.90
8340;DHT22;4207;49.314;7.162;2023-02-17T15:00:16;10.80;99.90
8340;DHT22;4207;49.314;7.162;2023-02-17T15:02:47;10.80;99.90
8340;DHT22;4207;49.314;7.162;2023-02-17T15:05:17;10.80;99.90
8340;DHT22;4207;49.314;7.162;2023-02-17T15:07:45;10.80;99.90
8340;DHT22;4207;49.314;7.162;2023-02-17T15:10:18;10.80;99.90
8340;DHT22;4207;49.314;7.162;2023-02-17T15:12:47;10.80;99.90
8340;DHT22;4207;49.314;7.162;2023-02-17T15:15:16;10.80;99.90
8340;DHT22;4207;49.314;7.162;2023-02-17T15:17:44;10.80;99.90
8340;DHT22;4207;49.314;7.162;2023-02-17T15:20:15;10.80;99.90
8340;DHT22;4207;49.314;7.162;2023-02-17T15:22:43;10.80;99.90
8340;DHT22;4207;49.314;7.162;2023-02-17T15:25:13;10.80;99.90
8340;DHT22;4207;49.314;7.162;2023-02-17T15:27:42;10.90;99.90
8340;DHT22;4207;49.314;7.162;2023-02-17T15:30:12;10.90;99.90
8340;DHT22;4207;49.314;7.162;2023-02-17T15:32:41;10.90;99.90
8340;DHT22;4207;49.314;7.162;2023-02-17T15:35:15;10.90;99.90
8340;DHT22;4207;49.314;7.162;2023-02-17T15:37:43;10.80;99.90
8340;DHT22;4207;49.314;7.162;2023-02-17T15:40:13;10.80;99.90
8340;DHT22;4207;49.314;7.162;2023-02-17T15:42:41;10.70;99.90
8340;DHT22;4207;49.314;7.162;2023-02-17T15:45:12;10.70;99.90
8340;DHT22;4207;49.314;7.162;2023-02-17T15:47:40;10.70;99.90
8340;DHT22;4207;49.314;7.162;2023-02-17T15:50:14;10.70;99.90
8340;DHT22;4207;49.314;7.162;2023-02-17T15:52:46;10.60;99.90
8340;DHT22;4207;49.314;7.162;2023-02-17T15:55:15;10.60;99.90
8340;DHT22;4207;49.314;7.162;2023-02-17T15:57:47;10.60;99.90
8340;DHT22;4207;49.314;7.162;2023-02-17T16:00:18;10.60;99.90
8340;DHT22;4207;49.314;7.162;2023-02-17T16:02:47;10.60;99.90
8340;DHT22;4207;49.314;7.162;2023-02-17T16:05:22;10.60;99.90
8340;DHT22;4207;49.314;7.162;2023-02-17T16:07:50;10.50;99.90
8340;DHT22;4207;49.314;7.162;2023-02-17T16:10:21;10.60;99.90
8340;DHT22;4207;49.314;7.162;2023-02-17T16:12:50;10.50;99.90
8340;DHT22;4207;49.314;7.162;2023-02-17T16:15:21;10.60;99.90
8340;DHT22;4207;49.314;7.162;2023-02-17T16:17:50;10.50;99.90
8340;DHT22;4207;49.314;7.162;2023-02-17T16:20:21;10.50;99.90
8340;DHT22;4207;49.314;7.162;2023-02-17T16:22:50;10.50;99.90
8340;DHT22;4207;49.314;7.162;2023-02-17T16:25:19;10.60;99.90
8340;DHT22;4207;49.314;7.162;2023-02-17T16:27:48;10.50;99.90
8340;DHT22;4207;49.314;7.162;2023-02-17T16:30:21;10.50;99.90
8340;DHT22;4207;49.314;7.162;2023-02-17T16:32:50;10.50;99.90
8340;DHT22;4207;49.314;7.162;2023-02-17T16:35:21;10.50;99.90
8340;DHT22;4207;49.314;7.162;2023-02-17T16:37:52;10.50;99.90
8340;DHT22;4207;49.314;7.162;2023-02-17T16:40:23;10.50;99.90
8340;DHT22;4207;49.314;7.162;2023-02-17T16:42:51;10.50;99.90
8340;DHT22;4207;49.314;7.162;2023-02-17T16:45:21;10.40;99.90